Terminal Aerodrome Forecast
Issued by NWS

Home | Current Version | Previous Version | Text Only | Print | Product List | Glossary Off
Versions: 1 2 3 4 5 6 7 8 9 10 11 12 13 14

000
FTUS45 KGGW 201720
TAFOLF
TAF
KOLF 201720Z 2018/2118 33013KT P6SM FEW200
     FM210400 04007KT P6SM SCT200
     FM211600 09013KT P6SM BKN050=

USA.gov is the U.S. government's official web portal to all federal, state and local government web resources and services.